sensor_id;sensor_type;location;lat;lon;timestamp;temperature;humidity
51811;DHT22;52468;40.116;18.296;2023-06-22T00:00:26;24.50;62.50
51811;DHT22;52468;40.116;18.296;2023-06-22T00:02:54;24.50;62.50
51811;DHT22;52468;40.116;18.296;2023-06-22T00:05:22;24.50;62.60
51811;DHT22;52468;40.116;18.296;2023-06-22T00:07:50;24.60;62.60
51811;DHT22;52468;40.116;18.296;2023-06-22T00:10:18;24.50;62.80
51811;DHT22;52468;40.116;18.296;2023-06-22T00:12:46;24.50;62.80
51811;DHT22;52468;40.116;18.296;2023-06-22T00:15:14;24.50;63.10
51811;DHT22;52468;40.116;18.296;2023-06-22T00:17:42;24.50;63.40
51811;DHT22;52468;40.116;18.296;2023-06-22T00:20:10;24.50;63.50
51811;DHT22;52468;40.116;18.296;2023-06-22T00:22:38;24.50;63.60
51811;DHT22;52468;40.116;18.296;2023-06-22T00:25:07;24.50;63.80
51811;DHT22;52468;40.116;18.296;2023-06-22T00:27:36;24.50;63.90
51811;DHT22;52468;40.116;18.296;2023-06-22T00:30:07;24.50;64.10
51811;DHT22;52468;40.116;18.296;2023-06-22T00:32:35;24.50;64.10
51811;DHT22;52468;40.116;18.296;2023-06-22T00:35:03;24.50;64.30
51811;DHT22;52468;40.116;18.296;2023-06-22T00:37:31;24.50;64.40
51811;DHT22;52468;40.116;18.296;2023-06-22T00:39:59;24.50;64.40
51811;DHT22;52468;40.116;18.296;2023-06-22T00:42:27;24.50;64.50
51811;DHT22;52468;40.116;18.296;2023-06-22T00:44:55;24.50;64.40
51811;DHT22;52468;40.116;18.296;2023-06-22T00:47:24;24.50;64.50
51811;DHT22;52468;40.116;18.296;2023-06-22T00:49:52;24.50;64.50
51811;DHT22;52468;40.116;18.296;2023-06-22T00:52:22;24.50;64.60
51811;DHT22;52468;40.116;18.296;2023-06-22T00:54:56;24.50;64.70
51811;DHT22;52468;40.116;18.296;2023-06-22T00:57:24;24.50;64.60
51811;DHT22;52468;40.116;18.296;2023-06-22T00:59:56;24.50;64.70
51811;DHT22;52468;40.116;18.296;2023-06-22T01:02:23;24.50;64.90
51811;DHT22;52468;40.116;18.296;2023-06-22T01:04:51;24.50;65.10
51811;DHT22;52468;40.116;18.296;2023-06-22T01:12:50;24.50;65.30
51811;DHT22;52468;40.116;18.296;2023-06-22T01:15:30;24.50;65.40
51811;DHT22;52468;40.116;18.296;2023-06-22T01:17:59;24.40;65.40
51811;DHT22;52468;40.116;18.296;2023-06-22T01:20:29;24.40;65.50
51811;DHT22;52468;40.116;18.296;2023-06-22T01:25:36;24.30;65.60
51811;DHT22;52468;40.116;18.296;2023-06-22T01:30:51;24.20;65.80
51811;DHT22;52468;40.116;18.296;2023-06-22T01:33:35;24.20;65.90
51811;DHT22;52468;40.116;18.296;2023-06-22T01:36:05;24.10;66.10
51811;DHT22;52468;40.116;18.296;2023-06-22T01:38:34;24.10;66.20
51811;DHT22;52468;40.116;18.296;2023-06-22T01:41:04;24.10;66.30
51811;DHT22;52468;40.116;18.296;2023-06-22T01:43:32;24.10;66.40
51811;DHT22;52468;40.116;18.296;2023-06-22T01:46:02;24.10;66.50
51811;DHT22;52468;40.116;18.296;2023-06-22T01:48:31;24.00;66.60
51811;DHT22;52468;40.116;18.296;2023-06-22T01:51:02;24.00;66.70
51811;DHT22;52468;40.116;18.296;2023-06-22T01:53:31;23.90;67.00
51811;DHT22;52468;40.116;18.296;2023-06-22T01:55:59;23.90;67.00
51811;DHT22;52468;40.116;18.296;2023-06-22T01:58:30;23.90;67.20
51811;DHT22;52468;40.116;18.296;2023-06-22T02:01:13;23.80;67.10
51811;DHT22;52468;40.116;18.296;2023-06-22T02:03:53;23.90;67.10
51811;DHT22;52468;40.116;18.296;2023-06-22T02:06:30;23.90;67.10
51811;DHT22;52468;40.116;18.296;2023-06-22T02:09:08;23.90;67.30
51811;DHT22;52468;40.116;18.296;2023-06-22T02:11:41;23.90;67.30
51811;DHT22;52468;40.116;18.296;2023-06-22T02:14:10;23.90;67.50
51811;DHT22;52468;40.116;18.296;2023-06-22T02:16:39;23.80;67.80
51811;DHT22;52468;40.116;18.296;2023-06-22T02:19:08;23.90;68.00
51811;DHT22;52468;40.116;18.296;2023-06-22T02:21:36;23.90;68.30
51811;DHT22;52468;40.116;18.296;2023-06-22T02:24:05;23.90;68.30
51811;DHT22;52468;40.116;18.296;2023-06-22T02:26:33;23.90;68.40
51811;DHT22;52468;40.116;18.296;2023-06-22T02:29:02;23.90;68.40
51811;DHT22;52468;40.116;18.296;2023-06-22T02:31:30;24.00;68.40
51811;DHT22;52468;40.116;18.296;2023-06-22T02:33:58;24.00;68.20
51811;DHT22;52468;40.116;18.296;2023-06-22T02:36:26;23.90;68.40
51811;DHT22;52468;40.116;18.296;2023-06-22T02:38:55;23.90;68.40
51811;DHT22;52468;40.116;18.296;2023-06-22T02:41:26;24.00;68.50
51811;DHT22;52468;40.116;18.296;2023-06-22T02:43:56;24.00;68.30
51811;DHT22;52468;40.116;18.296;2023-06-22T02:46:24;24.00;68.30
51811;DHT22;52468;40.116;18.296;2023-06-22T02:48:52;24.00;68.50
51811;DHT22;52468;40.116;18.296;2023-06-22T02:51:20;23.90;68.60
51811;DHT22;52468;40.116;18.296;2023-06-22T02:53:48;23.90;68.60
51811;DHT22;52468;40.116;18.296;2023-06-22T02:56:21;23.90;68.60
51811;DHT22;52468;40.116;18.296;2023-06-22T02:58:57;24.00;68.40
51811;DHT22;52468;40.116;18.296;2023-06-22T03:01:34;23.90;68.50
51811;DHT22;52468;40.116;18.296;2023-06-22T03:04:18;23.90;68.60
51811;DHT22;52468;40.116;18.296;2023-06-22T03:06:46;24.00;68.60
51811;DHT22;52468;40.116;18.296;2023-06-22T03:09:18;24.00;68.40
51811;DHT22;52468;40.116;18.296;2023-06-22T03:11:46;24.00;68.50
51811;DHT22;52468;40.116;18.296;2023-06-22T03:14:15;24.00;68.30
51811;DHT22;52468;40.116;18.296;2023-06-22T03:16:43;24.00;68.40
51811;DHT22;52468;40.116;18.296;2023-06-22T03:19:12;24.00;68.50
51811;DHT22;52468;40.116;18.296;2023-06-22T03:21:40;24.00;68.50
51811;DHT22;52468;40.116;18.296;2023-06-22T03:24:08;24.00;68.50
51811;DHT22;52468;40.116;18.296;2023-06-22T03:26:36;24.00;68.60
51811;DHT22;52468;40.116;18.296;2023-06-22T03:29:04;23.90;68.90
51811;DHT22;52468;40.116;18.296;2023-06-22T03:31:35;23.90;69.00
51811;DHT22;52468;40.116;18.296;2023-06-22T03:34:05;23.90;69.10
51811;DHT22;52468;40.116;18.296;2023-06-22T03:36:33;24.00;69.00
51811;DHT22;52468;40.116;18.296;2023-06-22T03:39:02;24.00;68.90
51811;DHT22;52468;40.116;18.296;2023-06-22T03:41:30;24.10;68.80
51811;DHT22;52468;40.116;18.296;2023-06-22T03:43:58;24.20;68.60
51811;DHT22;52468;40.116;18.296;2023-06-22T03:46:26;24.20;68.60
51811;DHT22;52468;40.116;18.296;2023-06-22T03:48:54;24.30;68.60
51811;DHT22;52468;40.116;18.296;2023-06-22T03:51:22;24.40;68.30
51811;DHT22;52468;40.116;18.296;2023-06-22T03:53:50;24.40;67.80
51811;DHT22;52468;40.116;18.296;2023-06-22T03:56:18;24.50;68.00
51811;DHT22;52468;40.116;18.296;2023-06-22T03:58:48;24.60;67.40
51811;DHT22;52468;40.116;18.296;2023-06-22T04:01:15;24.70;66.90
51811;DHT22;52468;40.116;18.296;2023-06-22T04:03:44;24.80;66.90
51811;DHT22;52468;40.116;18.296;2023-06-22T04:06:12;24.90;66.50
51811;DHT22;52468;40.116;18.296;2023-06-22T04:08:40;25.00;65.80
51811;DHT22;52468;40.116;18.296;2023-06-22T04:11:08;25.10;65.60
51811;DHT22;52468;40.116;18.296;2023-06-22T04:13:36;25.10;65.20
51811;DHT22;52468;40.116;18.296;2023-06-22T04:16:04;25.20;65.10
51811;DHT22;52468;40.116;18.296;2023-06-22T04:18:32;25.40;64.40
51811;DHT22;52468;40.116;18.296;2023-06-22T04:21:01;25.50;64.00
51811;DHT22;52468;40.116;18.296;2023-06-22T04:23:29;25.60;63.70
51811;DHT22;52468;40.116;18.296;2023-06-22T04:25:57;25.80;63.40
51811;DHT22;52468;40.116;18.296;2023-06-22T04:28:25;26.00;63.00
51811;DHT22;52468;40.116;18.296;2023-06-22T04:30:54;26.30;62.60
51811;DHT22;52468;40.116;18.296;2023-06-22T04:33:25;26.50;61.80
51811;DHT22;52468;40.116;18.296;2023-06-22T04:35:53;26.60;61.40
51811;DHT22;52468;40.116;18.296;2023-06-22T04:38:21;26.80;61.30
51811;DHT22;52468;40.116;18.296;2023-06-22T04:40:50;26.90;60.80
51811;DHT22;52468;40.116;18.296;2023-06-22T04:43:18;27.00;60.40
51811;DHT22;52468;40.116;18.296;2023-06-22T04:45:46;27.00;59.70
51811;DHT22;52468;40.116;18.296;2023-06-22T04:48:20;27.10;59.30
51811;DHT22;52468;40.116;18.296;2023-06-22T04:50:48;27.10;58.40
51811;DHT22;52468;40.116;18.296;2023-06-22T04:53:16;27.00;58.50
51811;DHT22;52468;40.116;18.296;2023-06-22T04:55:44;27.00;58.60
51811;DHT22;52468;40.116;18.296;2023-06-22T04:58:14;26.90;58.50
51811;DHT22;52468;40.116;18.296;2023-06-22T05:00:41;27.00;57.90
51811;DHT22;52468;40.116;18.296;2023-06-22T05:03:12;27.00;57.80
51811;DHT22;52468;40.116;18.296;2023-06-22T05:05:45;27.10;57.40
51811;DHT22;52468;40.116;18.296;2023-06-22T05:08:13;27.30;56.70
51811;DHT22;52468;40.116;18.296;2023-06-22T05:10:41;27.50;56.30
51811;DHT22;52468;40.116;18.296;2023-06-22T05:13:14;27.60;55.80
51811;DHT22;52468;40.116;18.296;2023-06-22T05:15:42;27.80;55.40
51811;DHT22;52468;40.116;18.296;2023-06-22T05:18:11;27.90;55.20
51811;DHT22;52468;40.116;18.296;2023-06-22T05:20:39;27.80;54.90
51811;DHT22;52468;40.116;18.296;2023-06-22T05:23:07;28.00;54.80
51811;DHT22;52468;40.116;18.296;2023-06-22T05:25:35;28.20;54.50
51811;DHT22;52468;40.116;18.296;2023-06-22T05:28:03;28.40;53.80
51811;DHT22;52468;40.116;18.296;2023-06-22T05:30:38;28.50;53.60
51811;DHT22;52468;40.116;18.296;2023-06-22T05:33:06;28.70;52.80
51811;DHT22;52468;40.116;18.296;2023-06-22T05:35:34;28.70;53.10
51811;DHT22;52468;40.116;18.296;2023-06-22T05:38:02;29.00;52.50
51811;DHT22;52468;40.116;18.296;2023-06-22T05:40:30;29.00;52.40
51811;DHT22;52468;40.116;18.296;2023-06-22T05:42:58;29.10;52.10
51811;DHT22;52468;40.116;18.296;2023-06-22T05:45:28;29.20;51.70
51811;DHT22;52468;40.116;18.296;2023-06-22T05:47:56;29.10;51.70
51811;DHT22;52468;40.116;18.296;2023-06-22T05:50:24;29.30;51.80
51811;DHT22;52468;40.116;18.296;2023-06-22T05:52:52;29.50;51.00
51811;DHT22;52468;40.116;18.296;2023-06-22T05:55:20;29.50;51.10
51811;DHT22;52468;40.116;18.296;2023-06-22T05:57:48;29.70;51.00
51811;DHT22;52468;40.116;18.296;2023-06-22T06:00:16;29.90;50.40
51811;DHT22;52468;40.116;18.296;2023-06-22T06:02:44;30.10;49.90
51811;DHT22;52468;40.116;18.296;2023-06-22T06:05:12;30.30;49.20
51811;DHT22;52468;40.116;18.296;2023-06-22T06:07:44;30.40;48.80
51811;DHT22;52468;40.116;18.296;2023-06-22T06:10:13;30.40;48.70
51811;DHT22;52468;40.116;18.296;2023-06-22T06:12:41;30.40;48.60
51811;DHT22;52468;40.116;18.296;2023-06-22T06:15:09;30.50;48.00
51811;DHT22;52468;40.116;18.296;2023-06-22T06:17:53;30.70;47.60
51811;DHT22;52468;40.116;18.296;2023-06-22T06:20:22;30.50;47.60
51811;DHT22;52468;40.116;18.296;2023-06-22T06:22:51;30.70;47.00
51811;DHT22;52468;40.116;18.296;2023-06-22T06:25:19;30.90;47.10
51811;DHT22;52468;40.116;18.296;2023-06-22T06:27:50;30.90;46.90
51811;DHT22;52468;40.116;18.296;2023-06-22T06:30:19;31.00;46.40
51811;DHT22;52468;40.116;18.296;2023-06-22T06:32:48;31.20;45.90
51811;DHT22;52468;40.116;18.296;2023-06-22T06:35:16;31.20;45.60
51811;DHT22;52468;40.116;18.296;2023-06-22T06:37:46;31.00;45.70
51811;DHT22;52468;40.116;18.296;2023-06-22T06:40:16;31.00;46.00
51811;DHT22;52468;40.116;18.296;2023-06-22T06:42:46;31.30;45.80
51811;DHT22;52468;40.116;18.296;2023-06-22T06:45:23;31.60;45.10
51811;DHT22;52468;40.116;18.296;2023-06-22T06:47:52;31.60;45.00
51811;DHT22;52468;40.116;18.296;2023-06-22T06:50:20;31.50;45.10
51811;DHT22;52468;40.116;18.296;2023-06-22T06:52:48;31.70;44.90
51811;DHT22;52468;40.116;18.296;2023-06-22T06:55:17;31.60;44.60
51811;DHT22;52468;40.116;18.296;2023-06-22T06:57:46;31.80;44.30
51811;DHT22;52468;40.116;18.296;2023-06-22T07:00:16;31.90;43.60
51811;DHT22;52468;40.116;18.296;2023-06-22T07:02:45;31.90;43.40
51811;DHT22;52468;40.116;18.296;2023-06-22T07:05:13;32.00;43.50
51811;DHT22;52468;40.116;18.296;2023-06-22T07:07:41;32.30;43.30
51811;DHT22;52468;40.116;18.296;2023-06-22T07:10:12;32.50;43.30
51811;DHT22;52468;40.116;18.296;2023-06-22T07:12:40;32.90;42.30
51811;DHT22;52468;40.116;18.296;2023-06-22T07:15:09;32.80;42.00
51811;DHT22;52468;40.116;18.296;2023-06-22T07:17:38;32.70;42.00
51811;DHT22;52468;40.116;18.296;2023-06-22T07:20:09;32.90;41.60
51811;DHT22;52468;40.116;18.296;2023-06-22T07:22:38;32.80;40.90
51811;DHT22;52468;40.116;18.296;2023-06-22T07:25:07;33.00;40.90
51811;DHT22;52468;40.116;18.296;2023-06-22T07:28:02;33.00;40.80
51811;DHT22;52468;40.116;18.296;2023-06-22T07:30:31;32.90;40.60
51811;DHT22;52468;40.116;18.296;2023-06-22T07:33:00;33.00;40.60
51811;DHT22;52468;40.116;18.296;2023-06-22T07:35:32;33.20;40.50
51811;DHT22;52468;40.116;18.296;2023-06-22T07:38:00;33.20;40.20
51811;DHT22;52468;40.116;18.296;2023-06-22T07:40:29;33.10;40.20
51811;DHT22;52468;40.116;18.296;2023-06-22T07:42:57;33.40;39.80
51811;DHT22;52468;40.116;18.296;2023-06-22T07:45:25;33.70;39.60
51811;DHT22;52468;40.116;18.296;2023-06-22T07:47:53;33.80;38.70
51811;DHT22;52468;40.116;18.296;2023-06-22T07:50:21;33.80;38.70
51811;DHT22;52468;40.116;18.296;2023-06-22T07:52:49;33.70;38.70
51811;DHT22;52468;40.116;18.296;2023-06-22T07:55:18;33.60;38.30
51811;DHT22;52468;40.116;18.296;2023-06-22T07:57:48;33.70;38.20
51811;DHT22;52468;40.116;18.296;2023-06-22T08:00:17;33.60;38.40
51811;DHT22;52468;40.116;18.296;2023-06-22T08:02:46;33.80;38.10
51811;DHT22;52468;40.116;18.296;2023-06-22T08:05:15;34.00;37.70
51811;DHT22;52468;40.116;18.296;2023-06-22T08:07:46;34.20;37.60
51811;DHT22;52468;40.116;18.296;2023-06-22T08:10:14;34.20;37.80
51811;DHT22;52468;40.116;18.296;2023-06-22T08:12:42;34.30;37.50
51811;DHT22;52468;40.116;18.296;2023-06-22T08:15:10;34.30;37.50
51811;DHT22;52468;40.116;18.296;2023-06-22T08:17:39;34.50;37.30
51811;DHT22;52468;40.116;18.296;2023-06-22T08:20:08;34.50;37.30
51811;DHT22;52468;40.116;18.296;2023-06-22T08:22:40;34.90;36.80
51811;DHT22;52468;40.116;18.296;2023-06-22T08:25:09;35.00;36.60
51811;DHT22;52468;40.116;18.296;2023-06-22T08:27:38;35.20;36.10
51811;DHT22;52468;40.116;18.296;2023-06-22T08:30:09;35.10;36.20
51811;DHT22;52468;40.116;18.296;2023-06-22T08:32:38;35.20;36.00
51811;DHT22;52468;40.116;18.296;2023-06-22T08:35:07;35.30;35.80
51811;DHT22;52468;40.116;18.296;2023-06-22T08:37:39;35.60;35.60
51811;DHT22;52468;40.116;18.296;2023-06-22T08:40:09;35.50;35.30
51811;DHT22;52468;40.116;18.296;2023-06-22T08:42:41;35.60;35.40
51811;DHT22;52468;40.116;18.296;2023-06-22T08:45:11;35.60;35.80
51811;DHT22;52468;40.116;18.296;2023-06-22T08:47:43;35.70;34.90
51811;DHT22;52468;40.116;18.296;2023-06-22T08:50:12;35.80;34.40
51811;DHT22;52468;40.116;18.296;2023-06-22T08:52:41;35.90;34.40
51811;DHT22;52468;40.116;18.296;2023-06-22T08:55:12;35.80;34.60
51811;DHT22;52468;40.116;18.296;2023-06-22T08:57:42;35.70;34.70
51811;DHT22;52468;40.116;18.296;2023-06-22T09:00:13;35.70;34.90
51811;DHT22;52468;40.116;18.296;2023-06-22T09:02:49;35.90;35.00
51811;DHT22;52468;40.116;18.296;2023-06-22T09:05:19;36.00;34.70
51811;DHT22;52468;40.116;18.296;2023-06-22T09:07:50;36.00;34.40
51811;DHT22;52468;40.116;18.296;2023-06-22T09:10:19;35.80;34.70
51811;DHT22;52468;40.116;18.296;2023-06-22T09:12:48;36.00;34.60
51811;DHT22;52468;40.116;18.296;2023-06-22T09:15:16;36.00;34.70
51811;DHT22;52468;40.116;18.296;2023-06-22T09:17:45;36.00;34.50
51811;DHT22;52468;40.116;18.296;2023-06-22T09:20:16;36.10;34.30
51811;DHT22;52468;40.116;18.296;2023-06-22T09:22:45;36.10;34.70
51811;DHT22;52468;40.116;18.296;2023-06-22T09:25:12;36.10;34.40
51811;DHT22;52468;40.116;18.296;2023-06-22T09:27:40;36.30;34.20
51811;DHT22;52468;40.116;18.296;2023-06-22T09:30:09;36.40;34.10
51811;DHT22;52468;40.116;18.296;2023-06-22T09:32:37;36.50;34.30
51811;DHT22;52468;40.116;18.296;2023-06-22T09:35:05;36.60;34.30
51811;DHT22;52468;40.116;18.296;2023-06-22T09:37:34;36.60;34.20
51811;DHT22;52468;40.116;18.296;2023-06-22T09:40:03;36.80;34.00
51811;DHT22;52468;40.116;18.296;2023-06-22T09:42:36;36.60;33.80
51811;DHT22;52468;40.116;18.296;2023-06-22T09:45:05;36.70;33.70
51811;DHT22;52468;40.116;18.296;2023-06-22T09:47:33;36.80;33.40
51811;DHT22;52468;40.116;18.296;2023-06-22T09:50:01;36.90;33.20
51811;DHT22;52468;40.116;18.296;2023-06-22T09:52:29;37.20;33.10
51811;DHT22;52468;40.116;18.296;2023-06-22T09:55:01;37.50;33.20
51811;DHT22;52468;40.116;18.296;2023-06-22T09:57:32;37.40;33.00
51811;DHT22;52468;40.116;18.296;2023-06-22T10:00:01;37.50;33.00
51811;DHT22;52468;40.116;18.296;2023-06-22T10:02:34;37.10;33.10
51811;DHT22;52468;40.116;18.296;2023-06-22T10:05:04;36.80;33.40
51811;DHT22;52468;40.116;18.296;2023-06-22T10:07:32;37.00;33.70
51811;DHT22;52468;40.116;18.296;2023-06-22T10:10:00;37.20;34.00
51811;DHT22;52468;40.116;18.296;2023-06-22T10:12:28;37.20;34.10
51811;DHT22;52468;40.116;18.296;2023-06-22T10:14:56;37.20;33.80
51811;DHT22;52468;40.116;18.296;2023-06-22T10:17:24;37.30;33.60
51811;DHT22;52468;40.116;18.296;2023-06-22T10:19:52;37.40;33.70
51811;DHT22;52468;40.116;18.296;2023-06-22T10:22:20;37.40;34.00
51811;DHT22;52468;40.116;18.296;2023-06-22T10:24:48;37.30;34.20
51811;DHT22;52468;40.116;18.296;2023-06-22T10:27:16;37.50;34.10
51811;DHT22;52468;40.116;18.296;2023-06-22T10:29:44;37.60;34.20
51811;DHT22;52468;40.116;18.296;2023-06-22T10:32:12;37.60;34.10
51811;DHT22;52468;40.116;18.296;2023-06-22T10:34:40;37.80;34.10
51811;DHT22;52468;40.116;18.296;2023-06-22T10:37:08;37.60;34.00
51811;DHT22;52468;40.116;18.296;2023-06-22T10:39:36;37.60;33.70
51811;DHT22;52468;40.116;18.296;2023-06-22T10:42:04;37.90;33.20
51811;DHT22;52468;40.116;18.296;2023-06-22T10:44:32;37.90;33.30
51811;DHT22;52468;40.116;18.296;2023-06-22T10:47:00;37.90;33.50
51811;DHT22;52468;40.116;18.296;2023-06-22T10:49:28;38.00;33.30
51811;DHT22;52468;40.116;18.296;2023-06-22T10:51:56;38.10;33.30
51811;DHT22;52468;40.116;18.296;2023-06-22T10:54:24;38.00;33.10
51811;DHT22;52468;40.116;18.296;2023-06-22T10:56:51;38.20;32.60
51811;DHT22;52468;40.116;18.296;2023-06-22T10:59:19;38.20;32.60
51811;DHT22;52468;40.116;18.296;2023-06-22T11:01:50;38.10;32.50
51811;DHT22;52468;40.116;18.296;2023-06-22T11:04:18;38.00;32.30
51811;DHT22;52468;40.116;18.296;2023-06-22T11:06:47;37.80;32.30
51811;DHT22;52468;40.116;18.296;2023-06-22T11:09:16;37.80;32.10
51811;DHT22;52468;40.116;18.296;2023-06-22T11:11:52;37.70;32.30
51811;DHT22;52468;40.116;18.296;2023-06-22T11:14:22;38.20;32.30
51811;DHT22;52468;40.116;18.296;2023-06-22T11:16:51;38.40;32.00
51811;DHT22;52468;40.116;18.296;2023-06-22T11:19:18;38.40;31.80
51811;DHT22;52468;40.116;18.296;2023-06-22T11:21:46;38.40;32.30
51811;DHT22;52468;40.116;18.296;2023-06-22T11:24:14;38.50;31.80
51811;DHT22;52468;40.116;18.296;2023-06-22T11:26:43;38.60;31.10
51811;DHT22;52468;40.116;18.296;2023-06-22T11:29:11;38.50;30.80
51811;DHT22;52468;40.116;18.296;2023-06-22T11:31:43;38.80;30.50
51811;DHT22;52468;40.116;18.296;2023-06-22T11:34:11;38.60;30.50
51811;DHT22;52468;40.116;18.296;2023-06-22T11:36:39;38.80;30.00
51811;DHT22;52468;40.116;18.296;2023-06-22T11:39:08;38.70;30.00
51811;DHT22;52468;40.116;18.296;2023-06-22T11:41:37;38.60;29.80
51811;DHT22;52468;40.116;18.296;2023-06-22T11:44:05;38.80;29.60
51811;DHT22;52468;40.116;18.296;2023-06-22T11:46:33;39.00;29.10
51811;DHT22;52468;40.116;18.296;2023-06-22T11:49:02;39.00;29.40
51811;DHT22;52468;40.116;18.296;2023-06-22T11:51:30;39.00;29.30
51811;DHT22;52468;40.116;18.296;2023-06-22T11:53:59;38.80;29.80
51811;DHT22;52468;40.116;18.296;2023-06-22T11:56:27;39.20;29.40
51811;DHT22;52468;40.116;18.296;2023-06-22T11:58:55;39.50;29.10
51811;DHT22;52468;40.116;18.296;2023-06-22T12:01:23;39.00;29.40
51811;DHT22;52468;40.116;18.296;2023-06-22T12:03:51;39.00;29.00
51811;DHT22;52468;40.116;18.296;2023-06-22T12:06:19;39.20;29.10
51811;DHT22;52468;40.116;18.296;2023-06-22T12:08:47;39.00;29.20
51811;DHT22;52468;40.116;18.296;2023-06-22T12:11:14;39.10;29.40
51811;DHT22;52468;40.116;18.296;2023-06-22T12:13:42;38.80;29.80
51811;DHT22;52468;40.116;18.296;2023-06-22T12:16:10;39.00;30.00
51811;DHT22;52468;40.116;18.296;2023-06-22T12:18:40;39.30;29.30
51811;DHT22;52468;40.116;18.296;2023-06-22T12:21:07;39.50;29.50
51811;DHT22;52468;40.116;18.296;2023-06-22T12:23:36;40.00;29.20
51811;DHT22;52468;40.116;18.296;2023-06-22T12:26:04;40.30;28.80
51811;DHT22;52468;40.116;18.296;2023-06-22T12:28:31;40.50;28.60
51811;DHT22;52468;40.116;18.296;2023-06-22T12:30:59;40.60;28.90
51811;DHT22;52468;40.116;18.296;2023-06-22T12:33:27;40.90;28.30
51811;DHT22;52468;40.116;18.296;2023-06-22T12:35:55;41.20;28.10
51811;DHT22;52468;40.116;18.296;2023-06-22T12:38:23;41.50;27.10
51811;DHT22;52468;40.116;18.296;2023-06-22T12:40:54;41.90;26.70
51811;DHT22;52468;40.116;18.296;2023-06-22T12:43:22;42.50;26.00
51811;DHT22;52468;40.116;18.296;2023-06-22T12:45:50;42.90;25.90
51811;DHT22;52468;40.116;18.296;2023-06-22T12:48:18;43.50;25.80
51811;DHT22;52468;40.116;18.296;2023-06-22T12:50:46;44.10;24.80
51811;DHT22;52468;40.116;18.296;2023-06-22T12:53:15;44.50;24.30
51811;DHT22;52468;40.116;18.296;2023-06-22T12:55:43;44.70;23.80
51811;DHT22;52468;40.116;18.296;2023-06-22T12:58:11;44.90;23.30
51811;DHT22;52468;40.116;18.296;2023-06-22T13:00:39;45.10;22.60
51811;DHT22;52468;40.116;18.296;2023-06-22T13:03:07;45.10;22.60
51811;DHT22;52468;40.116;18.296;2023-06-22T13:05:35;45.80;22.50
51811;DHT22;52468;40.116;18.296;2023-06-22T13:08:03;45.30;22.80
51811;DHT22;52468;40.116;18.296;2023-06-22T13:10:31;45.50;22.50
51811;DHT22;52468;40.116;18.296;2023-06-22T13:13:00;45.30;22.90
51811;DHT22;52468;40.116;18.296;2023-06-22T13:15:28;45.80;22.60
51811;DHT22;52468;40.116;18.296;2023-06-22T13:17:57;46.50;22.40
51811;DHT22;52468;40.116;18.296;2023-06-22T13:20:24;46.00;23.10
51811;DHT22;52468;40.116;18.296;2023-06-22T13:22:52;46.10;23.20
51811;DHT22;52468;40.116;18.296;2023-06-22T13:25:21;45.80;23.40
51811;DHT22;52468;40.116;18.296;2023-06-22T13:27:54;46.30;22.90
51811;DHT22;52468;40.116;18.296;2023-06-22T13:30:21;46.60;23.00
51811;DHT22;52468;40.116;18.296;2023-06-22T13:32:49;47.00;22.70
51811;DHT22;52468;40.116;18.296;2023-06-22T13:35:18;47.10;22.70
51811;DHT22;52468;40.116;18.296;2023-06-22T13:37:46;46.90;22.70
51811;DHT22;52468;40.116;18.296;2023-06-22T13:40:19;46.70;23.20
51811;DHT22;52468;40.116;18.296;2023-06-22T13:42:47;46.50;23.20
51811;DHT22;52468;40.116;18.296;2023-06-22T13:45:15;46.70;23.10
51811;DHT22;52468;40.116;18.296;2023-06-22T13:47:44;46.10;23.40
51811;DHT22;52468;40.116;18.296;2023-06-22T13:50:13;45.80;23.60
51811;DHT22;52468;40.116;18.296;2023-06-22T13:52:40;45.60;24.00
51811;DHT22;52468;40.116;18.296;2023-06-22T13:55:09;46.00;23.90
51811;DHT22;52468;40.116;18.296;2023-06-22T13:57:37;46.00;23.80
51811;DHT22;52468;40.116;18.296;2023-06-22T14:00:05;45.70;24.00
51811;DHT22;52468;40.116;18.296;2023-06-22T14:02:38;46.00;23.60
51811;DHT22;52468;40.116;18.296;2023-06-22T14:05:07;46.40;22.80
51811;DHT22;52468;40.116;18.296;2023-06-22T14:07:35;46.20;23.10
51811;DHT22;52468;40.116;18.296;2023-06-22T14:10:04;47.00;22.90
51811;DHT22;52468;40.116;18.296;2023-06-22T14:12:32;47.20;22.50
51811;DHT22;52468;40.116;18.296;2023-06-22T14:15:00;47.10;22.30
51811;DHT22;52468;40.116;18.296;2023-06-22T14:17:27;46.90;22.20
51811;DHT22;52468;40.116;18.296;2023-06-22T14:19:55;46.70;22.60
51811;DHT22;52468;40.116;18.296;2023-06-22T14:22:23;46.50;22.50
51811;DHT22;52468;40.116;18.296;2023-06-22T14:24:51;46.20;22.80
51811;DHT22;52468;40.116;18.296;2023-06-22T14:27:19;46.20;23.10
51811;DHT22;52468;40.116;18.296;2023-06-22T14:29:47;46.10;23.20
51811;DHT22;52468;40.116;18.296;2023-06-22T14:32:15;46.60;23.10
51811;DHT22;52468;40.116;18.296;2023-06-22T14:34:43;46.00;23.20
51811;DHT22;52468;40.116;18.296;2023-06-22T14:37:11;46.10;23.10
51811;DHT22;52468;40.116;18.296;2023-06-22T14:39:40;45.90;23.20
51811;DHT22;52468;40.116;18.296;2023-06-22T14:42:09;45.60;23.50
51811;DHT22;52468;40.116;18.296;2023-06-22T14:44:36;45.50;23.80
51811;DHT22;52468;40.116;18.296;2023-06-22T14:47:05;45.70;23.50
51811;DHT22;52468;40.116;18.296;2023-06-22T14:49:33;45.60;23.40
51811;DHT22;52468;40.116;18.296;2023-06-22T14:52:01;45.50;23.60
51811;DHT22;52468;40.116;18.296;2023-06-22T14:54:29;45.30;23.20
51811;DHT22;52468;40.116;18.296;2023-06-22T14:57:00;45.50;23.00
51811;DHT22;52468;40.116;18.296;2023-06-22T14:59:28;45.80;23.00
51811;DHT22;52468;40.116;18.296;2023-06-22T15:01:56;46.00;22.70
51811;DHT22;52468;40.116;18.296;2023-06-22T15:04:24;45.30;23.20
51811;DHT22;52468;40.116;18.296;2023-06-22T15:06:51;45.10;23.50
51811;DHT22;52468;40.116;18.296;2023-06-22T15:09:19;45.30;23.00
51811;DHT22;52468;40.116;18.296;2023-06-22T15:11:47;45.60;22.70
51811;DHT22;52468;40.116;18.296;2023-06-22T15:14:15;45.80;22.60
51811;DHT22;52468;40.116;18.296;2023-06-22T15:16:43;45.60;22.90
51811;DHT22;52468;40.116;18.296;2023-06-22T15:19:11;45.50;22.80
51811;DHT22;52468;40.116;18.296;2023-06-22T15:21:40;45.60;22.40
51811;DHT22;52468;40.116;18.296;2023-06-22T15:24:08;45.50;22.40
51811;DHT22;52468;40.116;18.296;2023-06-22T15:26:36;45.40;22.60
51811;DHT22;52468;40.116;18.296;2023-06-22T15:29:04;45.40;22.40
51811;DHT22;52468;40.116;18.296;2023-06-22T15:31:31;45.30;22.70
51811;DHT22;52468;40.116;18.296;2023-06-22T15:34:00;45.40;22.50
51811;DHT22;52468;40.116;18.296;2023-06-22T15:36:28;45.60;22.50